Time;durP1;ratioP1;P1;durP2;ratioP2;P2;SDS_P1;SDS_P2;PMS_P1;PMS_P2;Temp;Humidity;BMP_temperature;BMP_pressure;BME280_temperature;BME280_humidity;BME280_pressure;Samples;Min_cycle;Max_cycle;Signal;HPM_P1;HPM_P2
2021/01/10 00:00:34;;;;;;;272.77;55.17;;;1.00;99.90;;;;;;5095884;28;20461;-76
2021/01/10 00:03:00;;;;;;;348.10;52.67;;;1.00;99.90;;;;;;5107898;28;20457;-76
2021/01/10 00:05:30;;;;;;;327.17;54.50;;;1.00;99.90;;;;;;5096360;28;20461;-76
2021/01/10 00:07:57;;;;;;;200.87;53.73;;;0.90;99.90;;;;;;5093864;27;20451;-76
2021/01/10 00:10:24;;;;;;;404.07;59.13;;;0.90;99.90;;;;;;5100853;28;20458;-76
2021/01/10 00:12:51;;;;;;;363.90;62.07;;;0.90;99.90;;;;;;5100662;28;20801;-76
2021/01/10 00:15:18;;;;;;;310.90;64.10;;;0.90;99.90;;;;;;5098781;28;20475;-76
2021/01/10 00:17:48;;;;;;;293.53;55.43;;;1.00;99.90;;;;;;5106107;28;20541;-76
2021/01/10 00:20:16;;;;;;;195.93;54.93;;;1.00;99.90;;;;;;5101376;28;21161;-76
2021/01/10 00:22:45;;;;;;;273.33;57.43;;;1.00;99.90;;;;;;5098733;28;20497;-76
2021/01/10 00:25:13;;;;;;;330.83;59.60;;;1.00;99.90;;;;;;5099240;28;20461;-76
2021/01/10 00:27:41;;;;;;;493.70;64.77;;;0.90;99.90;;;;;;5101882;28;21046;-76
2021/01/10 00:30:09;;;;;;;336.03;58.83;;;1.00;99.90;;;;;;5102861;28;20568;-76
2021/01/10 00:32:37;;;;;;;338.13;60.50;;;1.00;99.90;;;;;;5098625;28;20816;-76
2021/01/10 00:35:04;;;;;;;360.57;63.50;;;1.00;99.90;;;;;;5099399;28;20456;-76
2021/01/10 00:37:31;;;;;;;236.37;56.30;;;0.90;99.90;;;;;;5102299;28;20499;-76
2021/01/10 00:39:58;;;;;;;350.30;63.80;;;0.90;99.90;;;;;;5101628;28;20544;-75
2021/01/10 00:42:24;;;;;;;322.93;58.70;;;1.00;99.90;;;;;;5102176;28;20468;-76
2021/01/10 00:44:51;;;;;;;310.27;59.17;;;0.90;99.90;;;;;;5101218;28;20574;-76
2021/01/10 00:47:18;;;;;;;210.33;58.27;;;1.00;99.90;;;;;;5103024;28;20808;-76
2021/01/10 00:49:45;;;;;;;182.00;52.13;;;1.00;99.90;;;;;;5098772;28;20845;-75
2021/01/10 00:52:12;;;;;;;172.43;55.77;;;0.90;99.90;;;;;;5094343;28;20458;-76
2021/01/10 00:54:39;;;;;;;226.17;58.53;;;1.00;99.90;;;;;;5096002;28;20463;-76
2021/01/10 00:57:07;;;;;;;209.53;54.20;;;0.90;99.90;;;;;;5098885;28;20520;-75
2021/01/10 00:59:33;;;;;;;256.13;58.50;;;0.90;99.90;;;;;;5103262;28;20461;-76
2021/01/10 01:01:59;;;;;;;202.87;54.73;;;0.90;99.90;;;;;;5102541;28;20461;-76
2021/01/10 01:04:25;;;;;;;188.90;56.53;;;1.00;99.90;;;;;;5097963;28;20453;-75
2021/01/10 01:06:52;;;;;;;221.37;56.40;;;1.00;99.90;;;;;;5101802;27;20466;-76
2021/01/10 01:09:18;;;;;;;208.53;59.70;;;0.90;99.90;;;;;;5103630;28;20960;-76
2021/01/10 01:11:44;;;;;;;86.13;51.77;;;0.90;99.90;;;;;;5095369;28;20473;-76
2021/01/10 01:14:12;;;;;;;82.00;51.63;;;0.90;99.90;;;;;;5098929;28;20461;-76
2021/01/10 01:16:40;;;;;;;65.53;51.03;;;0.90;99.90;;;;;;5103347;28;20476;-76
2021/01/10 01:19:08;;;;;;;131.47;54.63;;;0.90;99.90;;;;;;5099235;28;20497;-76
2021/01/10 01:21:35;;;;;;;90.57;56.30;;;0.80;99.90;;;;;;5091867;28;20487;-76
2021/01/10 01:24:01;;;;;;;70.70;51.87;;;0.80;99.90;;;;;;5097052;28;20461;-76
2021/01/10 01:26:29;;;;;;;73.93;50.80;;;0.80;99.90;;;;;;5097800;28;20468;-76
2021/01/10 01:28:55;;;;;;;68.83;48.10;;;0.80;99.90;;;;;;5096455;28;20478;-76
2021/01/10 01:31:25;;;;;;;68.93;50.57;;;0.80;99.90;;;;;;5099838;28;20488;-75
2021/01/10 01:33:52;;;;;;;67.77;48.00;;;0.80;99.90;;;;;;5093418;28;20448;-76
2021/01/10 01:36:23;;;;;;;63.23;47.53;;;0.80;99.90;;;;;;5098765;28;20842;-75
2021/01/10 01:38:51;;;;;;;71.63;49.70;;;0.80;99.90;;;;;;5101824;28;20485;-76
2021/01/10 01:41:18;;;;;;;77.67;49.37;;;0.80;99.90;;;;;;5103666;28;20460;-76
2021/01/10 01:43:44;;;;;;;70.87;48.50;;;0.80;99.90;;;;;;5099535;28;20820;-77
2021/01/10 01:46:11;;;;;;;82.80;48.93;;;0.80;99.90;;;;;;5097158;28;21171;-76
2021/01/10 01:48:42;;;;;;;80.90;48.53;;;0.80;99.90;;;;;;5098790;28;20487;-77
2021/01/10 01:51:09;;;;;;;71.80;48.10;;;0.90;99.90;;;;;;5101100;28;20461;-75
2021/01/10 01:53:35;;;;;;;64.37;43.83;;;0.80;99.90;;;;;;5099308;28;20845;-77
2021/01/10 01:56:02;;;;;;;55.13;45.10;;;0.80;99.90;;;;;;5097995;28;20491;-76
2021/01/10 01:58:28;;;;;;;69.27;46.30;;;0.70;99.90;;;;;;5094958;28;21217;-77
2021/01/10 02:00:55;;;;;;;71.07;46.10;;;0.70;99.90;;;;;;5091461;28;20457;-77
2021/01/10 02:03:28;;;;;;;70.57;45.80;;;0.70;99.90;;;;;;5093011;28;20453;-77
2021/01/10 02:05:59;;;;;;;61.00;47.47;;;0.70;99.90;;;;;;5095468;28;20893;-75
2021/01/10 02:08:30;;;;;;;73.33;45.17;;;0.80;99.90;;;;;;5091479;28;20480;-76
2021/01/10 02:10:59;;;;;;;57.97;43.90;;;0.80;99.90;;;;;;5100703;28;20816;-75
2021/01/10 02:13:28;;;;;;;66.37;46.47;;;0.70;99.90;;;;;;5107228;28;20560;-76
2021/01/10 02:15:55;;;;;;;71.13;45.10;;;0.60;99.90;;;;;;5100747;28;20456;-77
2021/01/10 02:18:23;;;;;;;76.03;43.70;;;0.60;99.90;;;;;;5098193;28;20487;-75
2021/01/10 02:20:52;;;;;;;72.73;47.70;;;0.60;99.90;;;;;;5100138;28;20461;-77
2021/01/10 02:23:21;;;;;;;71.40;48.30;;;0.60;99.90;;;;;;5100798;28;20857;-76
2021/01/10 02:25:49;;;;;;;74.33;47.73;;;0.70;99.90;;;;;;5099200;28;20465;-78
2021/01/10 02:28:18;;;;;;;74.53;49.20;;;0.70;99.90;;;;;;5103538;28;21006;-77
2021/01/10 02:30:44;;;;;;;71.53;49.13;;;0.70;99.90;;;;;;5099794;28;20972;-75
2021/01/10 02:33:18;;;;;;;77.07;49.20;;;0.70;99.90;;;;;;5103836;28;20457;-76
2021/01/10 02:35:45;;;;;;;83.80;49.87;;;0.70;99.90;;;;;;5099921;28;20519;-76
2021/01/10 02:38:43;;;;;;;104.60;53.50;;;0.80;99.90;;;;;;5106208;28;20491;-77
2021/01/10 02:41:21;;;;;;;89.23;51.53;;;0.70;99.90;;;;;;5101397;28;20504;-77
2021/01/10 02:43:58;;;;;;;98.60;56.63;;;0.60;99.90;;;;;;5097610;28;20833;-75
2021/01/10 02:46:28;;;;;;;86.83;52.57;;;0.60;99.90;;;;;;5100235;28;21216;-75
2021/01/10 02:48:55;;;;;;;90.47;52.90;;;0.70;99.90;;;;;;5103381;28;20467;-77
2021/01/10 02:51:22;;;;;;;80.37;51.30;;;0.70;99.90;;;;;;5105092;28;20457;-75
2021/01/10 02:53:48;;;;;;;89.63;56.50;;;0.80;99.90;;;;;;5102880;28;20830;-78
2021/01/10 02:56:15;;;;;;;89.87;56.83;;;0.80;99.90;;;;;;5099540;28;20483;-75
2021/01/10 02:58:43;;;;;;;94.60;54.97;;;0.70;99.90;;;;;;5101384;28;20455;-77
2021/01/10 03:01:13;;;;;;;94.57;55.23;;;0.60;99.90;;;;;;5097954;28;20477;-77
2021/01/10 03:03:40;;;;;;;84.40;53.03;;;0.50;99.90;;;;;;5101964;28;20460;-74
2021/01/10 03:06:08;;;;;;;109.90;55.10;;;0.40;99.90;;;;;;5099417;28;20456;-77
2021/01/10 03:08:35;;;;;;;96.73;57.53;;;0.30;99.90;;;;;;5107377;27;20460;-74
2021/01/10 03:11:02;;;;;;;91.40;56.87;;;0.20;99.90;;;;;;5096995;28;20479;-76
2021/01/10 03:13:28;;;;;;;92.93;56.50;;;0.10;99.90;;;;;;5105249;28;20454;-76
2021/01/10 03:15:55;;;;;;;106.13;56.27;;;0.00;99.90;;;;;;5098630;28;20465;-74
2021/01/10 03:18:24;;;;;;;97.90;54.70;;;0.00;99.90;;;;;;5100737;28;20491;-75
2021/01/10 03:20:50;;;;;;;99.47;53.07;;;0.00;99.90;;;;;;5098368;28;20499;-75
2021/01/10 03:23:17;;;;;;;106.30;53.77;;;-0.10;99.90;;;;;;5104690;28;20503;-74
2021/01/10 03:25:43;;;;;;;101.20;56.70;;;-0.10;99.90;;;;;;5096991;28;20461;-77
2021/01/10 03:28:10;;;;;;;118.23;58.27;;;-0.10;99.90;;;;;;5106416;28;20515;-74
2021/01/10 03:30:36;;;;;;;104.47;54.00;;;-0.20;99.90;;;;;;5099483;28;20464;-78
2021/01/10 03:33:04;;;;;;;121.70;53.70;;;-0.10;99.90;;;;;;5103265;28;20461;-77
2021/01/10 03:35:30;;;;;;;178.23;53.70;;;-0.10;99.90;;;;;;5098538;28;20527;-75
2021/01/10 03:37:57;;;;;;;236.97;57.90;;;-0.10;99.90;;;;;;5101589;28;20488;-74
2021/01/10 03:40:23;;;;;;;111.00;54.07;;;-0.10;99.90;;;;;;5096204;28;20473;-75
2021/01/10 03:42:49;;;;;;;123.33;52.00;;;0.00;99.90;;;;;;5102482;28;20453;-75
2021/01/10 03:45:18;;;;;;;131.50;50.13;;;0.00;99.90;;;;;;5100048;27;20539;-77
2021/01/10 03:47:45;;;;;;;240.73;54.87;;;0.10;99.90;;;;;;5106434;27;20851;-75
2021/01/10 03:50:12;;;;;;;392.70;53.57;;;0.10;99.90;;;;;;5099834;28;21025;-76
2021/01/10 03:52:38;;;;;;;454.13;58.60;;;0.10;99.90;;;;;;5095129;28;20488;-78
2021/01/10 03:55:06;;;;;;;335.87;52.63;;;0.10;99.90;;;;;;5106166;28;20964;-73
2021/01/10 03:57:36;;;;;;;330.03;50.57;;;0.10;99.90;;;;;;5101731;28;20484;-76
2021/01/10 04:00:03;;;;;;;457.07;48.10;;;0.20;99.90;;;;;;5099436;28;20449;-74
2021/01/10 04:02:30;;;;;;;377.30;49.50;;;0.20;99.90;;;;;;5100026;27;20492;-74
2021/01/10 04:04:57;;;;;;;302.43;48.70;;;0.20;99.90;;;;;;5099341;28;20472;-73
2021/01/10 04:07:25;;;;;;;395.33;50.40;;;0.20;99.90;;;;;;5103480;27;20471;-74
2021/01/10 04:09:51;;;;;;;348.57;51.80;;;0.10;99.90;;;;;;5104243;28;20444;-76
2021/01/10 04:12:18;;;;;;;424.23;57.37;;;0.00;99.90;;;;;;5103108;28;20460;-73
2021/01/10 04:14:44;;;;;;;273.50;46.00;;;0.10;99.90;;;;;;5099809;28;20987;-76
2021/01/10 04:17:10;;;;;;;299.57;50.73;;;0.10;99.90;;;;;;5098273;28;20476;-74
2021/01/10 04:19:37;;;;;;;319.63;56.07;;;0.20;99.90;;;;;;5102792;28;20462;-74
2021/01/10 04:22:03;;;;;;;332.10;49.67;;;0.10;99.90;;;;;;5099994;28;20472;-74
2021/01/10 04:24:30;;;;;;;298.93;46.90;;;0.10;99.90;;;;;;5103885;28;20467;-76
2021/01/10 04:26:56;;;;;;;322.70;53.30;;;0.00;99.90;;;;;;5101176;28;20985;-76
2021/01/10 04:29:24;;;;;;;295.13;50.07;;;-0.10;99.90;;;;;;5105348;28;20488;-74
2021/01/10 04:31:50;;;;;;;387.90;50.00;;;-0.10;99.90;;;;;;5097312;28;20445;-73
2021/01/10 04:34:18;;;;;;;333.93;50.07;;;-0.10;99.90;;;;;;5101737;28;20468;-75
2021/01/10 04:36:46;;;;;;;240.47;51.27;;;-0.10;99.90;;;;;;5102335;28;20567;-74
2021/01/10 04:39:12;;;;;;;328.57;49.77;;;-0.10;99.90;;;;;;5101458;28;20458;-76
2021/01/10 04:41:41;;;;;;;237.07;48.57;;;-0.10;99.90;;;;;;5104625;28;20492;-73
2021/01/10 04:44:07;;;;;;;292.87;51.50;;;0.00;99.90;;;;;;5099387;28;20482;-76
2021/01/10 04:46:34;;;;;;;216.17;45.47;;;0.10;99.90;;;;;;5098543;28;20458;-77
2021/01/10 04:49:02;;;;;;;179.63;45.67;;;0.20;99.90;;;;;;5101584;28;20458;-76
2021/01/10 04:51:28;;;;;;;232.47;46.13;;;0.20;99.90;;;;;;5104397;28;20929;-76
2021/01/10 04:53:57;;;;;;;216.47;42.83;;;0.20;99.90;;;;;;5102447;28;20453;-74
2021/01/10 04:56:28;;;;;;;249.63;43.20;;;0.30;99.90;;;;;;5096714;28;20458;-73
2021/01/10 04:58:57;;;;;;;189.80;40.20;;;0.30;99.90;;;;;;5098611;28;20882;-76
2021/01/10 05:01:25;;;;;;;111.10;40.23;;;0.30;99.90;;;;;;5091380;28;20478;-74
2021/01/10 05:03:54;;;;;;;248.83;41.70;;;0.30;99.90;;;;;;5098706;28;20464;-75
2021/01/10 05:06:22;;;;;;;150.03;41.70;;;0.10;99.90;;;;;;5100378;28;20696;-74
2021/01/10 05:08:48;;;;;;;144.27;37.63;;;0.20;99.90;;;;;;5100563;28;20477;-77
2021/01/10 05:11:16;;;;;;;216.63;41.80;;;0.10;99.90;;;;;;5098006;28;20464;-76
2021/01/10 05:13:43;;;;;;;187.30;38.90;;;0.10;99.90;;;;;;5099414;28;20906;-77
2021/01/10 05:16:17;;;;;;;176.17;39.33;;;0.20;99.90;;;;;;5096564;28;20832;-75
2021/01/10 05:18:51;;;;;;;142.17;39.83;;;0.30;99.90;;;;;;5099564;28;20985;-75
2021/01/10 05:21:19;;;;;;;207.10;39.77;;;0.30;99.90;;;;;;5098962;28;20466;-76
2021/01/10 05:23:49;;;;;;;182.23;44.27;;;0.30;99.90;;;;;;5101102;28;20461;-73
2021/01/10 05:26:15;;;;;;;170.57;40.70;;;0.30;99.90;;;;;;5099211;28;20453;-74
2021/01/10 05:28:43;;;;;;;97.83;38.87;;;0.10;99.90;;;;;;5100066;28;20480;-77
2021/01/10 05:31:12;;;;;;;122.77;42.77;;;0.10;99.90;;;;;;5096040;28;20475;-77
2021/01/10 05:33:48;;;;;;;145.33;41.07;;;0.10;99.90;;;;;;5096466;28;20460;-77
2021/01/10 05:36:28;;;;;;;143.90;41.43;;;0.20;99.90;;;;;;5096800;28;21021;-78
2021/01/10 05:38:55;;;;;;;76.93;40.27;;;0.30;99.90;;;;;;5091614;28;20475;-75
2021/01/10 05:41:23;;;;;;;96.67;40.03;;;0.30;99.90;;;;;;5100021;28;20468;-74
2021/01/10 05:44:00;;;;;;;144.40;46.57;;;0.30;99.90;;;;;;5094926;28;20485;-74
2021/01/10 05:46:30;;;;;;;200.27;44.33;;;0.20;99.90;;;;;;5093007;28;21003;-78
2021/01/10 05:48:57;;;;;;;207.23;48.10;;;0.20;99.90;;;;;;5096806;28;20465;-77
2021/01/10 05:51:29;;;;;;;168.60;45.37;;;0.20;99.90;;;;;;5096272;28;20453;-76
2021/01/10 05:53:56;;;;;;;300.73;54.40;;;0.30;99.90;;;;;;5099480;28;20457;-75
2021/01/10 05:56:23;;;;;;;223.93;47.63;;;0.30;99.90;;;;;;5102185;28;20463;-76
2021/01/10 05:58:56;;;;;;;228.03;46.30;;;0.40;99.90;;;;;;5097677;28;20521;-78
2021/01/10 06:01:24;;;;;;;130.33;45.00;;;0.20;99.90;;;;;;5099866;28;20475;-74
2021/01/10 06:03:51;;;;;;;142.30;46.13;;;0.20;99.90;;;;;;5098981;28;20468;-74
2021/01/10 06:06:18;;;;;;;159.70;43.70;;;0.30;99.90;;;;;;5101827;28;20459;-74
2021/01/10 06:08:45;;;;;;;122.63;46.10;;;0.30;99.90;;;;;;5106727;28;20449;-75
2021/01/10 06:11:26;;;;;;;154.93;44.83;;;0.30;99.90;;;;;;5095371;28;20980;-76
2021/01/10 06:13:57;;;;;;;99.67;41.83;;;0.30;99.90;;;;;;5097173;28;20841;-76
2021/01/10 06:16:26;;;;;;;133.33;44.10;;;0.30;99.90;;;;;;5095617;28;20928;-77
2021/01/10 06:18:56;;;;;;;117.43;44.20;;;0.30;99.90;;;;;;5097930;28;20492;-77
2021/01/10 06:21:25;;;;;;;100.47;46.10;;;0.40;99.90;;;;;;5103050;28;20511;-77
2021/01/10 06:23:53;;;;;;;88.90;45.40;;;0.40;99.90;;;;;;5100927;28;20460;-74
2021/01/10 06:26:22;;;;;;;75.30;42.77;;;0.50;99.90;;;;;;5095405;28;20465;-77
2021/01/10 06:28:53;;;;;;;94.03;43.00;;;0.50;99.90;;;;;;5087016;28;20481;-78
2021/01/10 06:31:23;;;;;;;99.57;44.47;;;0.50;99.90;;;;;;5101256;28;20500;-78
2021/01/10 06:33:57;;;;;;;72.07;47.40;;;0.60;99.90;;;;;;5100565;28;20553;-77
2021/01/10 06:36:25;;;;;;;69.10;43.20;;;0.60;99.90;;;;;;5098754;28;20461;-77
2021/01/10 06:38:53;;;;;;;77.67;43.10;;;0.60;99.90;;;;;;5103316;28;20546;-78
2021/01/10 06:42:00;;;;;;;54.27;40.13;;;0.60;99.90;;;;;;5099748;28;20464;-76
2021/01/10 06:44:26;;;;;;;59.53;41.20;;;0.60;99.90;;;;;;5102152;28;20473;-76
2021/01/10 06:46:54;;;;;;;76.70;40.77;;;0.60;99.90;;;;;;5096245;28;20457;-77
2021/01/10 06:49:23;;;;;;;66.27;41.17;;;0.60;99.90;;;;;;5098905;28;20461;-78
2021/01/10 06:51:54;;;;;;;88.30;38.93;;;0.60;99.90;;;;;;5099463;28;20972;-79
2021/01/10 06:54:20;;;;;;;78.93;38.20;;;0.50;99.90;;;;;;5100819;28;20457;-75
2021/01/10 06:56:48;;;;;;;77.50;39.30;;;0.50;99.90;;;;;;5095999;28;20469;-75
2021/01/10 06:59:17;;;;;;;63.87;39.80;;;0.50;99.90;;;;;;5097053;28;20452;-76
2021/01/10 07:02:02;;;;;;;67.10;41.00;;;0.50;99.90;;;;;;5105887;27;20644;-78
2021/01/10 07:04:58;;;;;;;63.83;40.00;;;0.50;99.90;;;;;;5099460;28;20991;-76
2021/01/10 07:07:39;;;;;;;65.17;40.57;;;0.50;99.90;;;;;;5108424;27;20458;-75
2021/01/10 07:10:11;;;;;;;66.70;42.97;;;0.40;99.90;;;;;;5100065;28;20522;-78
2021/01/10 07:12:38;;;;;;;72.63;40.90;;;0.50;99.90;;;;;;5101193;28;20820;-79
2021/01/10 07:15:27;;;;;;;92.43;40.80;;;0.50;99.90;;;;;;5101783;28;20461;-77
2021/01/10 07:18:13;;;;;;;90.03;43.10;;;0.60;99.90;;;;;;5092128;28;20913;-77
2021/01/10 07:20:43;;;;;;;67.53;40.73;;;0.70;99.90;;;;;;5100508;28;20514;-79
2021/01/10 07:23:31;;;;;;;83.70;43.33;;;0.60;99.90;;;;;;5100617;28;20461;-78
2021/01/10 07:25:59;;;;;;;68.63;43.00;;;0.70;99.90;;;;;;5102110;28;20665;-79
2021/01/10 07:28:34;;;;;;;64.20;40.40;;;0.50;99.90;;;;;;5101287;28;20487;-77
2021/01/10 07:31:17;;;;;;;69.60;41.20;;;0.50;99.90;;;;;;5102645;28;20463;-77
2021/01/10 07:33:44;;;;;;;63.07;42.33;;;0.50;99.90;;;;;;5095776;28;20471;-76
2021/01/10 07:36:13;;;;;;;73.70;43.03;;;0.60;99.90;;;;;;5096607;28;20979;-75
2021/01/10 07:38:41;;;;;;;63.67;41.97;;;0.70;99.90;;;;;;5098634;28;20908;-79
2021/01/10 07:41:30;;;;;;;79.80;43.20;;;0.70;99.90;;;;;;5102881;28;20461;-75
2021/01/10 07:43:57;;;;;;;71.20;44.37;;;0.70;99.90;;;;;;5097519;28;20479;-76
2021/01/10 07:46:51;;;;;;;77.87;43.60;;;0.70;99.90;;;;;;5103358;28;20460;-79
2021/01/10 07:49:19;;;;;;;64.67;43.10;;;0.60;99.90;;;;;;5086690;28;21048;-77
2021/01/10 07:51:46;;;;;;;71.63;44.07;;;0.60;99.90;;;;;;5102571;28;20468;-74
2021/01/10 07:54:13;;;;;;;63.20;40.00;;;0.70;99.90;;;;;;5103986;28;20457;-79
2021/01/10 07:56:39;;;;;;;67.33;43.23;;;0.70;99.90;;;;;;5095931;28;20800;-79
2021/01/10 07:59:16;;;;;;;70.87;44.47;;;0.70;99.90;;;;;;5106258;28;20493;-77
2021/01/10 08:01:49;;;;;;;72.43;44.90;;;0.70;99.90;;;;;;5097559;28;20545;-78
2021/01/10 08:04:32;;;;;;;80.93;45.67;;;0.80;99.90;;;;;;5106145;28;20500;-78
2021/01/10 08:07:03;;;;;;;73.20;44.07;;;0.80;99.90;;;;;;5099353;27;20977;-78
2021/01/10 08:09:32;;;;;;;72.37;45.23;;;0.80;99.90;;;;;;5097442;28;20536;-78
2021/01/10 08:11:59;;;;;;;80.07;46.73;;;0.80;99.90;;;;;;5100297;28;20707;-78
2021/01/10 08:14:25;;;;;;;112.77;48.33;;;0.80;99.90;;;;;;5100648;28;20787;-78
2021/01/10 08:16:52;;;;;;;74.00;44.57;;;0.70;99.90;;;;;;5096416;28;20465;-78
2021/01/10 08:19:18;;;;;;;102.60;44.80;;;0.70;99.90;;;;;;5099685;28;20462;-79
2021/01/10 08:21:45;;;;;;;95.27;46.43;;;0.70;99.90;;;;;;5098872;28;20464;-78
2021/01/10 08:24:15;;;;;;;74.70;45.27;;;0.60;99.90;;;;;;5098697;28;20485;-76
2021/01/10 08:26:43;;;;;;;78.90;44.50;;;0.70;99.90;;;;;;5105748;28;20979;-81
2021/01/10 08:29:09;;;;;;;75.97;45.70;;;0.70;99.90;;;;;;5107426;28;20492;-76
2021/01/10 08:31:36;;;;;;;72.03;47.60;;;0.80;99.90;;;;;;5103390;28;20456;-81
2021/01/10 08:34:05;;;;;;;82.50;49.10;;;0.80;99.90;;;;;;5101716;28;20548;-76
2021/01/10 08:36:32;;;;;;;77.73;47.00;;;0.90;99.90;;;;;;5105330;28;20457;-76
2021/01/10 08:39:01;;;;;;;79.20;48.47;;;0.90;99.90;;;;;;5097864;28;21023;-79
2021/01/10 08:41:30;;;;;;;76.57;50.33;;;1.00;99.90;;;;;;5105225;28;20445;-79
2021/01/10 08:43:59;;;;;;;79.17;51.03;;;1.10;99.90;;;;;;5103208;28;20474;-80
2021/01/10 08:46:28;;;;;;;72.90;50.70;;;1.00;99.90;;;;;;5099046;28;20480;-80
2021/01/10 08:48:54;;;;;;;67.57;50.17;;;1.10;99.90;;;;;;5099172;28;20463;-79
2021/01/10 08:51:32;;;;;;;77.80;51.27;;;1.10;99.90;;;;;;5105208;28;20458;-78
2021/01/10 08:53:59;;;;;;;81.47;50.20;;;1.10;99.90;;;;;;5102403;28;20972;-78
2021/01/10 08:56:26;;;;;;;71.10;51.63;;;1.10;99.90;;;;;;5096730;28;20450;-77
2021/01/10 08:58:58;;;;;;;72.20;52.83;;;1.10;99.90;;;;;;5099349;28;20838;-79
2021/01/10 09:01:26;;;;;;;74.73;52.03;;;1.00;99.90;;;;;;5100424;28;21047;-79
2021/01/10 09:03:58;;;;;;;78.97;52.50;;;1.10;99.90;;;;;;5097487;28;20465;-77
2021/01/10 09:06:35;;;;;;;71.83;52.87;;;1.30;99.90;;;;;;5094940;28;20463;-75
2021/01/10 09:09:04;;;;;;;74.40;53.83;;;1.30;99.90;;;;;;5103700;28;20469;-76
2021/01/10 09:11:32;;;;;;;65.47;49.50;;;1.30;99.90;;;;;;5103851;28;20994;-77
2021/01/10 09:14:01;;;;;;;64.40;49.83;;;1.30;99.90;;;;;;5101762;28;20895;-77
2021/01/10 09:16:32;;;;;;;60.60;48.10;;;1.30;99.90;;;;;;5093364;28;20508;-77
2021/01/10 09:19:01;;;;;;;67.97;48.50;;;1.30;99.90;;;;;;5097707;28;20925;-76
2021/01/10 09:21:28;;;;;;;69.23;49.40;;;1.50;99.90;;;;;;5098358;28;20499;-77
2021/01/10 09:23:56;;;;;;;63.60;47.83;;;1.60;99.90;;;;;;5103753;28;20476;-75
2021/01/10 09:26:26;;;;;;;66.97;50.00;;;1.60;99.90;;;;;;5096552;28;20495;-78
2021/01/10 09:28:53;;;;;;;66.77;49.00;;;1.60;99.90;;;;;;5100509;28;20534;-77
2021/01/10 09:31:21;;;;;;;68.70;49.87;;;1.70;99.90;;;;;;5099909;28;20539;-75
2021/01/10 09:33:54;;;;;;;62.07;49.27;;;1.60;99.90;;;;;;5098884;28;20469;-75
2021/01/10 09:36:21;;;;;;;60.37;47.77;;;1.60;99.90;;;;;;5102228;28;20481;-78
2021/01/10 09:38:57;;;;;;;61.47;47.10;;;1.60;99.90;;;;;;5092481;28;20486;-75
2021/01/10 09:41:24;;;;;;;62.80;49.07;;;1.70;99.90;;;;;;5100530;28;20460;-78
2021/01/10 09:43:52;;;;;;;54.73;44.77;;;1.80;99.90;;;;;;5099516;28;20477;-77
2021/01/10 09:46:24;;;;;;;64.90;46.30;;;1.90;99.90;;;;;;5097381;28;20457;-78
2021/01/10 09:48:52;;;;;;;56.73;46.13;;;2.10;99.90;;;;;;5094981;28;20456;-75
2021/01/10 09:51:18;;;;;;;63.77;47.23;;;2.10;99.90;;;;;;5097285;28;21132;-77
2021/01/10 09:53:47;;;;;;;61.93;44.13;;;2.10;99.90;;;;;;5098542;28;20463;-78
2021/01/10 09:56:36;;;;;;;54.23;46.70;;;2.10;99.90;;;;;;5099456;28;20488;-76
2021/01/10 09:59:03;;;;;;;55.83;45.00;;;2.20;99.90;;;;;;5099659;28;20493;-78
2021/01/10 10:01:36;;;;;;;83.63;55.47;;;2.30;99.90;;;;;;5092447;28;20507;-75
2021/01/10 10:04:03;;;;;;;62.10;46.97;;;2.40;99.90;;;;;;5097760;28;20734;-76
2021/01/10 10:06:47;;;;;;;61.43;44.17;;;2.40;99.90;;;;;;5100492;28;20461;-76
2021/01/10 10:09:15;;;;;;;61.97;47.57;;;2.40;99.90;;;;;;5100606;28;20449;-76
2021/01/10 10:11:41;;;;;;;71.60;51.87;;;2.40;99.90;;;;;;5098444;28;20454;-75
2021/01/10 10:14:09;;;;;;;74.33;52.83;;;2.40;99.90;;;;;;5092908;28;20776;-78
2021/01/10 10:16:36;;;;;;;69.57;49.00;;;2.40;99.90;;;;;;5092584;28;20780;-75
2021/01/10 10:19:02;;;;;;;75.57;53.47;;;2.30;99.90;;;;;;5094205;28;20484;-77
2021/01/10 10:21:29;;;;;;;64.13;46.60;;;2.30;99.90;;;;;;5102837;28;20555;-77
2021/01/10 10:23:55;;;;;;;73.60;47.40;;;2.40;99.90;;;;;;5099858;28;20815;-76
2021/01/10 10:26:21;;;;;;;73.50;43.80;;;2.50;99.90;;;;;;5095748;28;20456;-77
2021/01/10 10:28:48;;;;;;;109.80;72.97;;;2.60;99.90;;;;;;5097394;28;20532;-74
2021/01/10 10:31:14;;;;;;;91.80;57.10;;;2.70;99.90;;;;;;5091314;28;20457;-77
2021/01/10 10:33:41;;;;;;;56.57;41.53;;;2.70;99.90;;;;;;5101195;28;20464;-75
2021/01/10 10:36:07;;;;;;;59.67;43.63;;;2.80;99.90;;;;;;5102892;28;20525;-74
2021/01/10 10:38:35;;;;;;;54.77;42.30;;;2.80;99.90;;;;;;5101505;28;20477;-77
2021/01/10 10:41:02;;;;;;;60.40;41.80;;;2.90;99.90;;;;;;5100638;28;20944;-75
2021/01/10 10:43:29;;;;;;;65.03;46.00;;;3.00;99.90;;;;;;5102016;28;21097;-75
2021/01/10 10:45:55;;;;;;;62.20;43.37;;;2.90;99.90;;;;;;5106652;28;20870;-75
2021/01/10 10:48:21;;;;;;;62.13;45.03;;;3.00;99.90;;;;;;5105369;28;20461;-76
2021/01/10 10:50:50;;;;;;;52.97;40.87;;;3.10;99.90;;;;;;5097300;28;20460;-75
2021/01/10 10:53:17;;;;;;;57.97;42.67;;;3.20;99.90;;;;;;5099867;28;20851;-75
2021/01/10 10:55:43;;;;;;;58.83;41.00;;;3.30;99.90;;;;;;5105318;28;20457;-77
2021/01/10 10:58:09;;;;;;;51.97;38.40;;;3.30;99.90;;;;;;5105247;28;20650;-77
2021/01/10 11:00:35;;;;;;;56.70;40.97;;;3.40;99.90;;;;;;5100080;28;20461;-76
2021/01/10 11:03:02;;;;;;;57.10;40.20;;;3.50;99.90;;;;;;5102473;28;20491;-77
2021/01/10 11:05:28;;;;;;;55.77;42.33;;;3.60;99.90;;;;;;5102125;28;21647;-77
2021/01/10 11:07:55;;;;;;;52.70;40.63;;;3.70;99.90;;;;;;5095060;28;20500;-77
2021/01/10 11:10:21;;;;;;;63.23;41.43;;;3.60;99.90;;;;;;5103805;28;20462;-77
2021/01/10 11:12:48;;;;;;;62.13;43.83;;;3.40;99.90;;;;;;5103065;28;20465;-76
2021/01/10 11:15:14;;;;;;;63.77;44.67;;;3.60;99.90;;;;;;5103753;27;20868;-76
2021/01/10 11:17:41;;;;;;;62.60;47.57;;;3.70;99.90;;;;;;5098473;28;20492;-79
2021/01/10 11:20:08;;;;;;;59.93;43.63;;;3.90;99.90;;;;;;5095564;28;20952;-78
2021/01/10 11:22:35;;;;;;;74.10;52.57;;;4.00;99.90;;;;;;5100003;28;20761;-76
2021/01/10 11:25:03;;;;;;;65.57;47.90;;;4.10;99.90;;;;;;5103734;28;20552;-76
2021/01/10 11:27:29;;;;;;;61.40;45.70;;;4.10;99.90;;;;;;5103490;28;20847;-77
2021/01/10 11:29:56;;;;;;;57.47;42.70;;;4.00;99.90;;;;;;5105351;28;20488;-76
2021/01/10 11:32:23;;;;;;;66.27;45.10;;;4.20;99.90;;;;;;5096206;28;20465;-78
2021/01/10 11:34:50;;;;;;;69.73;47.30;;;4.30;99.90;;;;;;5099695;28;21266;-75
2021/01/10 11:37:17;;;;;;;102.00;60.43;;;4.30;99.90;;;;;;5098741;28;20469;-78
2021/01/10 11:39:43;;;;;;;63.60;45.17;;;4.40;99.90;;;;;;5100819;28;20481;-75
2021/01/10 11:42:13;;;;;;;58.00;44.43;;;4.50;99.90;;;;;;5104981;28;20466;-76
2021/01/10 11:44:39;;;;;;;77.33;51.67;;;4.40;99.90;;;;;;5100583;28;21017;-75
2021/01/10 11:47:06;;;;;;;105.67;60.53;;;4.50;99.90;;;;;;5102275;28;20461;-75
2021/01/10 11:49:33;;;;;;;99.10;54.70;;;4.60;99.90;;;;;;5095708;28;20463;-78
2021/01/10 11:51:59;;;;;;;67.80;46.13;;;4.60;99.90;;;;;;5097157;28;21299;-75
2021/01/10 11:54:25;;;;;;;88.10;53.67;;;4.90;99.90;;;;;;5101935;28;20449;-76
2021/01/10 11:56:52;;;;;;;64.80;44.70;;;5.20;99.90;;;;;;5100229;28;20469;-75
2021/01/10 11:59:19;;;;;;;85.83;52.00;;;5.40;99.90;;;;;;5100374;28;21082;-75
2021/01/10 12:01:45;;;;;;;72.70;49.30;;;5.60;99.90;;;;;;5102090;27;20454;-76
2021/01/10 12:04:12;;;;;;;65.77;46.83;;;5.80;99.90;;;;;;5097227;28;20468;-76
2021/01/10 12:06:40;;;;;;;75.57;47.10;;;5.80;99.90;;;;;;5097925;28;20475;-77
2021/01/10 12:09:11;;;;;;;61.07;43.17;;;5.90;99.90;;;;;;5098659;28;20457;-77
2021/01/10 12:11:38;;;;;;;55.47;42.30;;;5.80;99.90;;;;;;5092556;28;20468;-77
2021/01/10 12:14:04;;;;;;;63.20;43.93;;;6.10;99.90;;;;;;5088997;28;20576;-77
2021/01/10 12:16:31;;;;;;;57.70;44.93;;;6.50;99.90;;;;;;5104200;27;20892;-76
2021/01/10 12:18:58;;;;;;;59.50;44.00;;;7.00;99.90;;;;;;5101734;28;20484;-77
2021/01/10 12:21:24;;;;;;;63.20;45.47;;;7.80;99.90;;;;;;5102721;28;20488;-76
2021/01/10 12:23:50;;;;;;;51.13;40.27;;;8.50;99.90;;;;;;5091024;28;20461;-76
2021/01/10 12:26:17;;;;;;;67.83;41.70;;;8.50;99.90;;;;;;5099130;28;20488;-78
2021/01/10 12:28:46;;;;;;;54.20;43.83;;;7.70;99.90;;;;;;5099221;28;20489;-79
2021/01/10 12:31:13;;;;;;;48.80;39.73;;;7.50;99.90;;;;;;5095272;28;20457;-76
2021/01/10 12:33:42;;;;;;;51.73;39.27;;;7.50;99.90;;;;;;5102472;28;20452;-75
2021/01/10 12:36:10;;;;;;;54.87;40.13;;;7.60;99.90;;;;;;5103161;28;20456;-77
2021/01/10 12:38:37;;;;;;;53.00;39.00;;;7.10;99.90;;;;;;5102932;28;20492;-76
2021/01/10 12:41:05;;;;;;;51.43;38.30;;;7.30;99.90;;;;;;5102320;28;20457;-75